sensor_id;sensor_type;location;lat;lon;timestamp;P1;durP1;ratioP1;P2;durP2;ratioP2
60416;SDS011;46263;44.726;10.396;2024-02-26T00:00:26;0.85;;;0.85;;
60416;SDS011;46263;44.726;10.396;2024-02-26T00:02:53;0.95;;;0.80;;
60416;SDS011;46263;44.726;10.396;2024-02-26T00:05:19;1.38;;;0.98;;
60416;SDS011;46263;44.726;10.396;2024-02-26T00:07:44;1.05;;;0.95;;
60416;SDS011;46263;44.726;10.396;2024-02-26T00:10:10;3.45;;;0.98;;
60416;SDS011;46263;44.726;10.396;2024-02-26T00:12:35;1.80;;;1.27;;
60416;SDS011;46263;44.726;10.396;2024-02-26T00:15:01;0.88;;;0.77;;
60416;SDS011;46263;44.726;10.396;2024-02-26T00:17:26;1.80;;;0.88;;
60416;SDS011;46263;44.726;10.396;2024-02-26T00:19:52;1.40;;;1.00;;
60416;SDS011;46263;44.726;10.396;2024-02-26T00:22:18;0.80;;;0.80;;
60416;SDS011;46263;44.726;10.396;2024-02-26T00:24:43;1.42;;;1.00;;
60416;SDS011;46263;44.726;10.396;2024-02-26T00:27:09;0.60;;;0.60;;
60416;SDS011;46263;44.726;10.396;2024-02-26T00:29:34;0.70;;;0.70;;
60416;SDS011;46263;44.726;10.396;2024-02-26T00:32:00;0.85;;;0.65;;
60416;SDS011;46263;44.726;10.396;2024-02-26T00:34:25;1.20;;;1.10;;
60416;SDS011;46263;44.726;10.396;2024-02-26T00:36:51;1.58;;;1.02;;
60416;SDS011;46263;44.726;10.396;2024-02-26T00:39:16;0.90;;;0.90;;
60416;SDS011;46263;44.726;10.396;2024-02-26T00:41:42;0.90;;;0.80;;
60416;SDS011;46263;44.726;10.396;2024-02-26T00:44:07;0.80;;;0.80;;
60416;SDS011;46263;44.726;10.396;2024-02-26T00:46:33;1.75;;;0.88;;
60416;SDS011;46263;44.726;10.396;2024-02-26T00:48:58;0.73;;;0.68;;
60416;SDS011;46263;44.726;10.396;2024-02-26T00:51:24;3.70;;;0.82;;
60416;SDS011;46263;44.726;10.396;2024-02-26T00:53:49;2.38;;;0.77;;
60416;SDS011;46263;44.726;10.396;2024-02-26T00:56:15;1.20;;;0.77;;
60416;SDS011;46263;44.726;10.396;2024-02-26T00:58:40;1.35;;;1.25;;
60416;SDS011;46263;44.726;10.396;2024-02-26T01:01:05;1.65;;;0.93;;
60416;SDS011;46263;44.726;10.396;2024-02-26T01:03:31;0.85;;;0.85;;
60416;SDS011;46263;44.726;10.396;2024-02-26T01:05:56;0.82;;;0.63;;
60416;SDS011;46263;44.726;10.396;2024-02-26T01:08:22;0.88;;;0.70;;
60416;SDS011;46263;44.726;10.396;2024-02-26T01:10:47;0.63;;;0.63;;
60416;SDS011;46263;44.726;10.396;2024-02-26T01:13:13;1.73;;;0.77;;
60416;SDS011;46263;44.726;10.396;2024-02-26T01:15:39;4.72;;;1.00;;
60416;SDS011;46263;44.726;10.396;2024-02-26T01:18:04;0.85;;;0.85;;
60416;SDS011;46263;44.726;10.396;2024-02-26T01:20:30;0.75;;;0.75;;
60416;SDS011;46263;44.726;10.396;2024-02-26T01:22:55;1.05;;;0.70;;
60416;SDS011;46263;44.726;10.396;2024-02-26T01:25:21;1.73;;;1.10;;
60416;SDS011;46263;44.726;10.396;2024-02-26T01:27:46;1.35;;;1.25;;
60416;SDS011;46263;44.726;10.396;2024-02-26T01:30:12;0.85;;;0.80;;
60416;SDS011;46263;44.726;10.396;2024-02-26T01:32:38;1.65;;;0.70;;
60416;SDS011;46263;44.726;10.396;2024-02-26T01:35:03;1.10;;;1.00;;
60416;SDS011;46263;44.726;10.396;2024-02-26T01:37:30;1.92;;;1.20;;
60416;SDS011;46263;44.726;10.396;2024-02-26T01:39:55;0.80;;;0.80;;
60416;SDS011;46263;44.726;10.396;2024-02-26T01:42:21;4.05;;;1.00;;
60416;SDS011;46263;44.726;10.396;2024-02-26T01:44:46;1.60;;;0.82;;
60416;SDS011;46263;44.726;10.396;2024-02-26T01:47:12;1.15;;;1.05;;
60416;SDS011;46263;44.726;10.396;2024-02-26T01:49:38;1.10;;;0.80;;
60416;SDS011;46263;44.726;10.396;2024-02-26T01:52:05;0.73;;;0.68;;
60416;SDS011;46263;44.726;10.396;2024-02-26T01:54:36;1.00;;;0.90;;
60416;SDS011;46263;44.726;10.396;2024-02-26T01:57:02;1.15;;;1.05;;
60416;SDS011;46263;44.726;10.396;2024-02-26T01:59:30;0.90;;;0.90;;
60416;SDS011;46263;44.726;10.396;2024-02-26T02:01:57;1.73;;;1.05;;
60416;SDS011;46263;44.726;10.396;2024-02-26T02:04:24;0.93;;;0.93;;
60416;SDS011;46263;44.726;10.396;2024-02-26T02:06:50;1.73;;;1.10;;
60416;SDS011;46263;44.726;10.396;2024-02-26T02:09:17;1.48;;;1.27;;
60416;SDS011;46263;44.726;10.396;2024-02-26T02:11:43;1.73;;;1.33;;
60416;SDS011;46263;44.726;10.396;2024-02-26T02:14:09;1.48;;;1.00;;
60416;SDS011;46263;44.726;10.396;2024-02-26T02:16:35;2.30;;;1.13;;
60416;SDS011;46263;44.726;10.396;2024-02-26T02:19:01;1.17;;;1.10;;
60416;SDS011;46263;44.726;10.396;2024-02-26T02:21:26;1.63;;;1.15;;
60416;SDS011;46263;44.726;10.396;2024-02-26T02:23:52;1.02;;;1.02;;
60416;SDS011;46263;44.726;10.396;2024-02-26T02:26:17;4.78;;;1.30;;
60416;SDS011;46263;44.726;10.396;2024-02-26T02:28:43;1.73;;;1.23;;
60416;SDS011;46263;44.726;10.396;2024-02-26T02:31:11;3.15;;;1.20;;
60416;SDS011;46263;44.726;10.396;2024-02-26T02:33:37;3.35;;;0.90;;
60416;SDS011;46263;44.726;10.396;2024-02-26T02:36:02;1.17;;;1.08;;
60416;SDS011;46263;44.726;10.396;2024-02-26T02:38:28;2.80;;;1.27;;
60416;SDS011;46263;44.726;10.396;2024-02-26T02:40:55;1.63;;;1.13;;
60416;SDS011;46263;44.726;10.396;2024-02-26T02:43:21;1.15;;;1.05;;
60416;SDS011;46263;44.726;10.396;2024-02-26T02:45:46;1.13;;;1.02;;
60416;SDS011;46263;44.726;10.396;2024-02-26T02:48:12;1.48;;;1.20;;
60416;SDS011;46263;44.726;10.396;2024-02-26T02:50:37;4.43;;;1.50;;
60416;SDS011;46263;44.726;10.396;2024-02-26T02:53:03;4.72;;;1.17;;
60416;SDS011;46263;44.726;10.396;2024-02-26T02:55:29;1.30;;;1.20;;
60416;SDS011;46263;44.726;10.396;2024-02-26T02:57:54;1.83;;;1.42;;
60416;SDS011;46263;44.726;10.396;2024-02-26T03:00:20;3.50;;;1.00;;
60416;SDS011;46263;44.726;10.396;2024-02-26T03:02:47;2.30;;;1.58;;
60416;SDS011;46263;44.726;10.396;2024-02-26T03:05:14;2.65;;;1.63;;
60416;SDS011;46263;44.726;10.396;2024-02-26T03:07:39;1.33;;;1.23;;
60416;SDS011;46263;44.726;10.396;2024-02-26T03:10:04;1.30;;;1.20;;
60416;SDS011;46263;44.726;10.396;2024-02-26T03:12:30;1.23;;;1.13;;
60416;SDS011;46263;44.726;10.396;2024-02-26T03:14:56;1.27;;;1.17;;
60416;SDS011;46263;44.726;10.396;2024-02-26T03:17:22;1.40;;;1.30;;
60416;SDS011;46263;44.726;10.396;2024-02-26T03:19:49;1.25;;;1.00;;
60416;SDS011;46263;44.726;10.396;2024-02-26T03:22:18;1.23;;;1.10;;
60416;SDS011;46263;44.726;10.396;2024-02-26T03:24:44;3.70;;;1.30;;
60416;SDS011;46263;44.726;10.396;2024-02-26T03:27:11;1.60;;;1.50;;
60416;SDS011;46263;44.726;10.396;2024-02-26T03:29:37;1.45;;;1.35;;
60416;SDS011;46263;44.726;10.396;2024-02-26T03:32:03;1.60;;;1.40;;
60416;SDS011;46263;44.726;10.396;2024-02-26T03:34:29;3.25;;;1.73;;
60416;SDS011;46263;44.726;10.396;2024-02-26T03:36:55;1.45;;;1.35;;
60416;SDS011;46263;44.726;10.396;2024-02-26T03:39:21;2.75;;;1.63;;
60416;SDS011;46263;44.726;10.396;2024-02-26T03:41:47;1.90;;;1.35;;
60416;SDS011;46263;44.726;10.396;2024-02-26T03:44:13;2.28;;;1.50;;
60416;SDS011;46263;44.726;10.396;2024-02-26T03:46:39;4.78;;;1.45;;
60416;SDS011;46263;44.726;10.396;2024-02-26T03:49:04;2.15;;;1.63;;
60416;SDS011;46263;44.726;10.396;2024-02-26T03:51:30;1.70;;;1.60;;
60416;SDS011;46263;44.726;10.396;2024-02-26T03:53:59;2.17;;;1.67;;
60416;SDS011;46263;44.726;10.396;2024-02-26T03:56:26;3.70;;;1.10;;
60416;SDS011;46263;44.726;10.396;2024-02-26T03:58:52;2.03;;;1.30;;
60416;SDS011;46263;44.726;10.396;2024-02-26T04:01:18;1.75;;;1.33;;
60416;SDS011;46263;44.726;10.396;2024-02-26T04:03:43;1.35;;;1.00;;
60416;SDS011;46263;44.726;10.396;2024-02-26T04:06:09;1.17;;;0.98;;
60416;SDS011;46263;44.726;10.396;2024-02-26T04:08:46;2.05;;;1.20;;
60416;SDS011;46263;44.726;10.396;2024-02-26T04:11:12;2.60;;;1.10;;
60416;SDS011;46263;44.726;10.396;2024-02-26T04:13:43;1.10;;;1.00;;
60416;SDS011;46263;44.726;10.396;2024-02-26T04:16:11;1.30;;;1.20;;
60416;SDS011;46263;44.726;10.396;2024-02-26T04:18:37;5.60;;;1.13;;
60416;SDS011;46263;44.726;10.396;2024-02-26T04:21:03;1.23;;;1.17;;
60416;SDS011;46263;44.726;10.396;2024-02-26T04:23:30;4.05;;;1.17;;
60416;SDS011;46263;44.726;10.396;2024-02-26T04:25:56;1.33;;;1.25;;
60416;SDS011;46263;44.726;10.396;2024-02-26T04:28:21;1.67;;;1.10;;
60416;SDS011;46263;44.726;10.396;2024-02-26T04:30:47;1.48;;;1.38;;
60416;SDS011;46263;44.726;10.396;2024-02-26T04:33:13;3.33;;;1.13;;
60416;SDS011;46263;44.726;10.396;2024-02-26T04:35:39;1.65;;;1.27;;
60416;SDS011;46263;44.726;10.396;2024-02-26T04:38:04;1.52;;;1.20;;
60416;SDS011;46263;44.726;10.396;2024-02-26T04:40:30;1.55;;;1.45;;
60416;SDS011;46263;44.726;10.396;2024-02-26T04:42:55;2.55;;;1.20;;
60416;SDS011;46263;44.726;10.396;2024-02-26T04:45:21;1.65;;;1.55;;
60416;SDS011;46263;44.726;10.396;2024-02-26T04:47:46;1.38;;;1.27;;
60416;SDS011;46263;44.726;10.396;2024-02-26T04:50:12;4.90;;;1.55;;
60416;SDS011;46263;44.726;10.396;2024-02-26T04:52:37;1.98;;;1.65;;
60416;SDS011;46263;44.726;10.396;2024-02-26T04:55:03;2.25;;;1.58;;
60416;SDS011;46263;44.726;10.396;2024-02-26T04:57:29;2.20;;;2.08;;
60416;SDS011;46263;44.726;10.396;2024-02-26T04:59:54;6.50;;;2.38;;
60416;SDS011;46263;44.726;10.396;2024-02-26T05:02:20;3.83;;;2.40;;
60416;SDS011;46263;44.726;10.396;2024-02-26T05:04:46;3.10;;;2.45;;
60416;SDS011;46263;44.726;10.396;2024-02-26T05:07:11;2.22;;;2.03;;
60416;SDS011;46263;44.726;10.396;2024-02-26T05:09:37;2.72;;;2.15;;
60416;SDS011;46263;44.726;10.396;2024-02-26T05:12:03;3.58;;;2.30;;
60416;SDS011;46263;44.726;10.396;2024-02-26T05:14:28;2.58;;;2.38;;
60416;SDS011;46263;44.726;10.396;2024-02-26T05:16:54;4.03;;;3.03;;
60416;SDS011;46263;44.726;10.396;2024-02-26T05:19:19;4.45;;;2.47;;
60416;SDS011;46263;44.726;10.396;2024-02-26T05:21:45;3.45;;;3.08;;
60416;SDS011;46263;44.726;10.396;2024-02-26T05:24:12;5.45;;;3.08;;
60416;SDS011;46263;44.726;10.396;2024-02-26T05:26:38;5.32;;;2.97;;
60416;SDS011;46263;44.726;10.396;2024-02-26T05:29:03;4.50;;;3.72;;
60416;SDS011;46263;44.726;10.396;2024-02-26T05:31:29;3.22;;;2.92;;
60416;SDS011;46263;44.726;10.396;2024-02-26T05:33:54;4.88;;;3.70;;
60416;SDS011;46263;44.726;10.396;2024-02-26T05:36:23;4.22;;;3.22;;
60416;SDS011;46263;44.726;10.396;2024-02-26T05:38:48;5.65;;;3.78;;
60416;SDS011;46263;44.726;10.396;2024-02-26T05:41:17;7.93;;;4.30;;
60416;SDS011;46263;44.726;10.396;2024-02-26T05:43:51;6.70;;;5.07;;
60416;SDS011;46263;44.726;10.396;2024-02-26T05:46:20;11.05;;;6.03;;
60416;SDS011;46263;44.726;10.396;2024-02-26T05:48:50;11.80;;;6.75;;
60416;SDS011;46263;44.726;10.396;2024-02-26T05:51:16;6.13;;;4.97;;
60416;SDS011;46263;44.726;10.396;2024-02-26T05:53:42;8.93;;;5.13;;
60416;SDS011;46263;44.726;10.396;2024-02-26T05:56:07;9.70;;;5.97;;
60416;SDS011;46263;44.726;10.396;2024-02-26T05:58:33;7.93;;;5.10;;
60416;SDS011;46263;44.726;10.396;2024-02-26T06:00:59;7.45;;;5.13;;
60416;SDS011;46263;44.726;10.396;2024-02-26T06:03:25;8.77;;;5.50;;
60416;SDS011;46263;44.726;10.396;2024-02-26T06:05:51;7.68;;;5.88;;
60416;SDS011;46263;44.726;10.396;2024-02-26T06:08:17;9.43;;;6.57;;
60416;SDS011;46263;44.726;10.396;2024-02-26T06:10:42;9.18;;;6.60;;
60416;SDS011;46263;44.726;10.396;2024-02-26T06:13:08;8.68;;;6.07;;
60416;SDS011;46263;44.726;10.396;2024-02-26T06:15:33;8.63;;;5.65;;
60416;SDS011;46263;44.726;10.396;2024-02-26T06:17:59;12.20;;;6.88;;
60416;SDS011;46263;44.726;10.396;2024-02-26T06:20:24;7.22;;;6.32;;
60416;SDS011;46263;44.726;10.396;2024-02-26T06:22:50;7.82;;;6.45;;
60416;SDS011;46263;44.726;10.396;2024-02-26T06:25:16;9.02;;;6.63;;
60416;SDS011;46263;44.726;10.396;2024-02-26T06:27:41;9.35;;;6.57;;
60416;SDS011;46263;44.726;10.396;2024-02-26T06:30:07;10.25;;;5.75;;
60416;SDS011;46263;44.726;10.396;2024-02-26T06:32:33;10.82;;;6.35;;
60416;SDS011;46263;44.726;10.396;2024-02-26T06:34:59;11.35;;;7.00;;
60416;SDS011;46263;44.726;10.396;2024-02-26T06:37:24;12.63;;;7.78;;
60416;SDS011;46263;44.726;10.396;2024-02-26T06:39:50;10.93;;;6.72;;
60416;SDS011;46263;44.726;10.396;2024-02-26T06:42:17;11.05;;;7.22;;
60416;SDS011;46263;44.726;10.396;2024-02-26T06:44:42;12.88;;;7.50;;
60416;SDS011;46263;44.726;10.396;2024-02-26T06:47:08;10.43;;;8.23;;
60416;SDS011;46263;44.726;10.396;2024-02-26T06:49:33;12.07;;;8.18;;
60416;SDS011;46263;44.726;10.396;2024-02-26T06:51:59;13.55;;;8.35;;
60416;SDS011;46263;44.726;10.396;2024-02-26T06:54:24;11.48;;;8.15;;
60416;SDS011;46263;44.726;10.396;2024-02-26T06:56:50;16.38;;;9.90;;
60416;SDS011;46263;44.726;10.396;2024-02-26T06:59:15;11.82;;;9.10;;
60416;SDS011;46263;44.726;10.396;2024-02-26T07:01:41;16.90;;;9.85;;
60416;SDS011;46263;44.726;10.396;2024-02-26T07:04:07;16.92;;;10.82;;
60416;SDS011;46263;44.726;10.396;2024-02-26T07:06:32;17.33;;;10.95;;
60416;SDS011;46263;44.726;10.396;2024-02-26T07:08:58;18.73;;;11.43;;
60416;SDS011;46263;44.726;10.396;2024-02-26T07:11:23;18.80;;;11.18;;
60416;SDS011;46263;44.726;10.396;2024-02-26T07:13:49;22.45;;;11.38;;
60416;SDS011;46263;44.726;10.396;2024-02-26T07:16:14;19.13;;;10.98;;
60416;SDS011;46263;44.726;10.396;2024-02-26T07:18:40;14.88;;;10.73;;
60416;SDS011;46263;44.726;10.396;2024-02-26T07:21:08;16.58;;;10.77;;
60416;SDS011;46263;44.726;10.396;2024-02-26T07:23:33;16.13;;;9.93;;
60416;SDS011;46263;44.726;10.396;2024-02-26T07:25:59;18.92;;;10.18;;
60416;SDS011;46263;44.726;10.396;2024-02-26T07:28:24;11.15;;;8.82;;
60416;SDS011;46263;44.726;10.396;2024-02-26T07:30:51;15.82;;;10.23;;
60416;SDS011;46263;44.726;10.396;2024-02-26T07:33:17;19.08;;;9.43;;
60416;SDS011;46263;44.726;10.396;2024-02-26T07:35:42;19.02;;;9.80;;
60416;SDS011;46263;44.726;10.396;2024-02-26T07:38:08;17.75;;;10.57;;
60416;SDS011;46263;44.726;10.396;2024-02-26T07:40:33;21.17;;;10.48;;
60416;SDS011;46263;44.726;10.396;2024-02-26T07:42:59;14.02;;;9.55;;
60416;SDS011;46263;44.726;10.396;2024-02-26T07:45:24;17.52;;;10.43;;
60416;SDS011;46263;44.726;10.396;2024-02-26T07:47:50;14.82;;;9.48;;
60416;SDS011;46263;44.726;10.396;2024-02-26T07:50:17;14.10;;;9.13;;
60416;SDS011;46263;44.726;10.396;2024-02-26T07:52:43;18.65;;;9.75;;
60416;SDS011;46263;44.726;10.396;2024-02-26T07:55:09;12.63;;;9.13;;
60416;SDS011;46263;44.726;10.396;2024-02-26T07:57:35;15.15;;;9.45;;
60416;SDS011;46263;44.726;10.396;2024-02-26T08:00:04;13.52;;;9.55;;
60416;SDS011;46263;44.726;10.396;2024-02-26T08:02:34;12.15;;;8.65;;
60416;SDS011;46263;44.726;10.396;2024-02-26T08:04:59;13.07;;;9.70;;
60416;SDS011;46263;44.726;10.396;2024-02-26T08:07:25;16.45;;;10.68;;
60416;SDS011;46263;44.726;10.396;2024-02-26T08:09:50;13.90;;;9.60;;
60416;SDS011;46263;44.726;10.396;2024-02-26T08:12:16;11.15;;;8.88;;
60416;SDS011;46263;44.726;10.396;2024-02-26T08:14:41;13.75;;;8.90;;
60416;SDS011;46263;44.726;10.396;2024-02-26T08:17:08;13.75;;;8.82;;
60416;SDS011;46263;44.726;10.396;2024-02-26T08:19:34;13.70;;;9.68;;
60416;SDS011;46263;44.726;10.396;2024-02-26T08:22:01;16.10;;;10.70;;
60416;SDS011;46263;44.726;10.396;2024-02-26T08:24:26;15.70;;;10.07;;
60416;SDS011;46263;44.726;10.396;2024-02-26T08:26:52;18.75;;;10.68;;
60416;SDS011;46263;44.726;10.396;2024-02-26T08:29:17;15.88;;;10.13;;
60416;SDS011;46263;44.726;10.396;2024-02-26T08:31:43;18.27;;;10.30;;
60416;SDS011;46263;44.726;10.396;2024-02-26T08:34:09;16.65;;;11.23;;
60416;SDS011;46263;44.726;10.396;2024-02-26T08:36:34;15.90;;;9.75;;
60416;SDS011;46263;44.726;10.396;2024-02-26T08:39:00;17.85;;;11.95;;
60416;SDS011;46263;44.726;10.396;2024-02-26T08:41:25;15.57;;;10.75;;
60416;SDS011;46263;44.726;10.396;2024-02-26T08:43:51;12.77;;;10.00;;
60416;SDS011;46263;44.726;10.396;2024-02-26T08:46:17;17.13;;;12.13;;
60416;SDS011;46263;44.726;10.396;2024-02-26T08:48:42;17.30;;;10.02;;
60416;SDS011;46263;44.726;10.396;2024-02-26T08:51:08;14.05;;;9.65;;
60416;SDS011;46263;44.726;10.396;2024-02-26T08:53:36;13.32;;;8.60;;
60416;SDS011;46263;44.726;10.396;2024-02-26T08:56:01;13.45;;;8.73;;
60416;SDS011;46263;44.726;10.396;2024-02-26T08:58:27;12.68;;;9.27;;
60416;SDS011;46263;44.726;10.396;2024-02-26T09:00:53;10.90;;;8.80;;
60416;SDS011;46263;44.726;10.396;2024-02-26T09:03:19;13.90;;;8.13;;
60416;SDS011;46263;44.726;10.396;2024-02-26T09:05:45;14.88;;;8.02;;
60416;SDS011;46263;44.726;10.396;2024-02-26T09:08:14;10.90;;;7.50;;
60416;SDS011;46263;44.726;10.396;2024-02-26T09:10:39;12.48;;;7.30;;
60416;SDS011;46263;44.726;10.396;2024-02-26T09:13:05;9.13;;;6.95;;
60416;SDS011;46263;44.726;10.396;2024-02-26T09:15:30;9.38;;;7.03;;
60416;SDS011;46263;44.726;10.396;2024-02-26T09:17:56;8.95;;;6.90;;
60416;SDS011;46263;44.726;10.396;2024-02-26T09:20:22;9.70;;;7.57;;
60416;SDS011;46263;44.726;10.396;2024-02-26T09:22:48;8.52;;;6.57;;
60416;SDS011;46263;44.726;10.396;2024-02-26T09:25:14;9.90;;;6.00;;
60416;SDS011;46263;44.726;10.396;2024-02-26T09:27:43;10.38;;;6.18;;
60416;SDS011;46263;44.726;10.396;2024-02-26T09:30:10;7.20;;;5.15;;
60416;SDS011;46263;44.726;10.396;2024-02-26T09:32:37;6.68;;;5.63;;
60416;SDS011;46263;44.726;10.396;2024-02-26T09:35:03;8.63;;;5.93;;
60416;SDS011;46263;44.726;10.396;2024-02-26T09:37:28;17.45;;;5.80;;
60416;SDS011;46263;44.726;10.396;2024-02-26T09:39:54;5.95;;;5.15;;
60416;SDS011;46263;44.726;10.396;2024-02-26T09:42:19;9.60;;;5.22;;
60416;SDS011;46263;44.726;10.396;2024-02-26T09:44:45;6.53;;;5.07;;
60416;SDS011;46263;44.726;10.396;2024-02-26T09:47:14;8.57;;;5.35;;
60416;SDS011;46263;44.726;10.396;2024-02-26T09:49:42;6.40;;;4.63;;
60416;SDS011;46263;44.726;10.396;2024-02-26T09:52:08;7.05;;;4.63;;
60416;SDS011;46263;44.726;10.396;2024-02-26T09:54:34;9.18;;;4.70;;
60416;SDS011;46263;44.726;10.396;2024-02-26T09:57:02;7.97;;;4.95;;
60416;SDS011;46263;44.726;10.396;2024-02-26T09:59:29;9.68;;;4.75;;
60416;SDS011;46263;44.726;10.396;2024-02-26T10:02:11;7.97;;;5.38;;
60416;SDS011;46263;44.726;10.396;2024-02-26T10:04:41;8.82;;;5.60;;
60416;SDS011;46263;44.726;10.396;2024-02-26T10:07:09;7.78;;;5.35;;
60416;SDS011;46263;44.726;10.396;2024-02-26T10:09:36;7.35;;;4.75;;
60416;SDS011;46263;44.726;10.396;2024-02-26T10:12:01;9.05;;;5.40;;
60416;SDS011;46263;44.726;10.396;2024-02-26T10:14:28;10.27;;;5.50;;
60416;SDS011;46263;44.726;10.396;2024-02-26T10:16:53;6.75;;;4.97;;
60416;SDS011;46263;44.726;10.396;2024-02-26T10:19:26;6.30;;;4.90;;
60416;SDS011;46263;44.726;10.396;2024-02-26T10:21:58;7.57;;;4.72;;
60416;SDS011;46263;44.726;10.396;2024-02-26T10:24:25;7.07;;;4.47;;
60416;SDS011;46263;44.726;10.396;2024-02-26T10:26:55;8.88;;;5.03;;
60416;SDS011;46263;44.726;10.396;2024-02-26T10:29:21;11.32;;;5.10;;
60416;SDS011;46263;44.726;10.396;2024-02-26T10:31:48;5.53;;;4.72;;
60416;SDS011;46263;44.726;10.396;2024-02-26T10:34:17;8.45;;;5.10;;
60416;SDS011;46263;44.726;10.396;2024-02-26T10:36:43;8.63;;;5.65;;
60416;SDS011;46263;44.726;10.396;2024-02-26T10:39:09;7.35;;;5.20;;
60416;SDS011;46263;44.726;10.396;2024-02-26T10:41:37;7.75;;;5.00;;
60416;SDS011;46263;44.726;10.396;2024-02-26T10:44:03;6.28;;;4.82;;
60416;SDS011;46263;44.726;10.396;2024-02-26T10:46:28;8.65;;;5.05;;
60416;SDS011;46263;44.726;10.396;2024-02-26T10:48:54;7.60;;;4.57;;
60416;SDS011;46263;44.726;10.396;2024-02-26T10:51:22;6.65;;;4.85;;
60416;SDS011;46263;44.726;10.396;2024-02-26T10:53:57;9.85;;;5.18;;
60416;SDS011;46263;44.726;10.396;2024-02-26T10:56:27;5.40;;;4.68;;
60416;SDS011;46263;44.726;10.396;2024-02-26T10:58:54;8.18;;;5.18;;
60416;SDS011;46263;44.726;10.396;2024-02-26T11:01:20;6.53;;;4.65;;
60416;SDS011;46263;44.726;10.396;2024-02-26T11:03:51;7.78;;;5.38;;
60416;SDS011;46263;44.726;10.396;2024-02-26T11:06:18;7.55;;;5.38;;
60416;SDS011;46263;44.726;10.396;2024-02-26T11:08:52;10.35;;;5.75;;
60416;SDS011;46263;44.726;10.396;2024-02-26T11:11:19;14.10;;;5.55;;
60416;SDS011;46263;44.726;10.396;2024-02-26T11:13:46;7.88;;;5.15;;
60416;SDS011;46263;44.726;10.396;2024-02-26T11:16:19;8.48;;;5.05;;
60416;SDS011;46263;44.726;10.396;2024-02-26T11:18:46;11.15;;;5.63;;
60416;SDS011;46263;44.726;10.396;2024-02-26T11:21:15;6.97;;;5.00;;
60416;SDS011;46263;44.726;10.396;2024-02-26T11:23:41;8.15;;;5.38;;
60416;SDS011;46263;44.726;10.396;2024-02-26T11:26:08;6.68;;;5.30;;
60416;SDS011;46263;44.726;10.396;2024-02-26T11:28:36;6.40;;;4.78;;
60416;SDS011;46263;44.726;10.396;2024-02-26T11:31:03;9.05;;;5.82;;
60416;SDS011;46263;44.726;10.396;2024-02-26T11:33:30;7.72;;;5.18;;
60416;SDS011;46263;44.726;10.396;2024-02-26T11:35:56;9.02;;;5.03;;
60416;SDS011;46263;44.726;10.396;2024-02-26T11:38:22;8.48;;;5.45;;
60416;SDS011;46263;44.726;10.396;2024-02-26T11:40:50;10.18;;;5.25;;
60416;SDS011;46263;44.726;10.396;2024-02-26T11:43:16;10.20;;;6.28;;
60416;SDS011;46263;44.726;10.396;2024-02-26T11:48:11;8.07;;;6.03;;
60416;SDS011;46263;44.726;10.396;2024-02-26T11:50:38;7.68;;;5.60;;
60416;SDS011;46263;44.726;10.396;2024-02-26T11:53:27;7.90;;;5.32;;
60416;SDS011;46263;44.726;10.396;2024-02-26T11:58:41;10.73;;;5.35;;
60416;SDS011;46263;44.726;10.396;2024-02-26T12:01:53;8.60;;;5.90;;
60416;SDS011;46263;44.726;10.396;2024-02-26T12:04:18;7.68;;;4.45;;
60416;SDS011;46263;44.726;10.396;2024-02-26T12:06:45;8.93;;;5.57;;
60416;SDS011;46263;44.726;10.396;2024-02-26T12:09:34;8.43;;;4.93;;
60416;SDS011;46263;44.726;10.396;2024-02-26T12:12:02;8.05;;;5.22;;
60416;SDS011;46263;44.726;10.396;2024-02-26T12:14:28;9.38;;;5.38;;
60416;SDS011;46263;44.726;10.396;2024-02-26T12:16:55;7.93;;;5.35;;
60416;SDS011;46263;44.726;10.396;2024-02-26T12:19:21;7.20;;;4.90;;
60416;SDS011;46263;44.726;10.396;2024-02-26T12:21:50;5.57;;;5.00;;
60416;SDS011;46263;44.726;10.396;2024-02-26T12:24:18;8.00;;;5.10;;
60416;SDS011;46263;44.726;10.396;2024-02-26T12:26:45;5.70;;;4.30;;
60416;SDS011;46263;44.726;10.396;2024-02-26T12:29:10;3.65;;;3.35;;
60416;SDS011;46263;44.726;10.396;2024-02-26T12:31:36;3.78;;;3.40;;
60416;SDS011;46263;44.726;10.396;2024-02-26T12:34:02;4.45;;;2.90;;
60416;SDS011;46263;44.726;10.396;2024-02-26T12:36:29;4.25;;;2.80;;
60416;SDS011;46263;44.726;10.396;2024-02-26T12:38:55;5.30;;;2.72;;
60416;SDS011;46263;44.726;10.396;2024-02-26T12:41:21;3.55;;;2.33;;
60416;SDS011;46263;44.726;10.396;2024-02-26T12:43:47;3.75;;;2.90;;
60416;SDS011;46263;44.726;10.396;2024-02-26T12:46:12;2.50;;;2.30;;
60416;SDS011;46263;44.726;10.396;2024-02-26T12:48:41;3.25;;;2.45;;
60416;SDS011;46263;44.726;10.396;2024-02-26T12:51:08;3.83;;;2.65;;
60416;SDS011;46263;44.726;10.396;2024-02-26T12:53:35;3.63;;;2.40;;
60416;SDS011;46263;44.726;10.396;2024-02-26T12:56:01;5.50;;;2.50;;
60416;SDS011;46263;44.726;10.396;2024-02-26T12:58:28;2.03;;;1.85;;
60416;SDS011;46263;44.726;10.396;2024-02-26T13:00:55;2.92;;;2.00;;
60416;SDS011;46263;44.726;10.396;2024-02-26T13:03:22;2.00;;;1.55;;
60416;SDS011;46263;44.726;10.396;2024-02-26T13:05:48;1.58;;;1.48;;
60416;SDS011;46263;44.726;10.396;2024-02-26T13:08:19;1.48;;;1.38;;
60416;SDS011;46263;44.726;10.396;2024-02-26T13:10:45;1.95;;;1.63;;
60416;SDS011;46263;44.726;10.396;2024-02-26T13:13:14;3.40;;;1.63;;
60416;SDS011;46263;44.726;10.396;2024-02-26T13:15:42;1.88;;;1.77;;
60416;SDS011;46263;44.726;10.396;2024-02-26T13:18:12;3.35;;;1.33;;
60416;SDS011;46263;44.726;10.396;2024-02-26T13:20:39;2.10;;;1.90;;
60416;SDS011;46263;44.726;10.396;2024-02-26T13:23:06;2.20;;;1.83;;
60416;SDS011;46263;44.726;10.396;2024-02-26T13:30:41;4.70;;;2.10;;
60416;SDS011;46263;44.726;10.396;2024-02-26T13:33:09;2.65;;;1.98;;
60416;SDS011;46263;44.726;10.396;2024-02-26T13:35:36;3.13;;;2.30;;
60416;SDS011;46263;44.726;10.396;2024-02-26T13:38:02;3.25;;;2.80;;
60416;SDS011;46263;44.726;10.396;2024-02-26T13:40:28;3.25;;;2.60;;
60416;SDS011;46263;44.726;10.396;2024-02-26T13:42:54;4.13;;;2.65;;
60416;SDS011;46263;44.726;10.396;2024-02-26T13:45:19;5.25;;;2.92;;
60416;SDS011;46263;44.726;10.396;2024-02-26T13:51:26;6.18;;;3.65;;
60416;SDS011;46263;44.726;10.396;2024-02-26T13:53:52;7.47;;;4.20;;
60416;SDS011;46263;44.726;10.396;2024-02-26T13:56:17;7.40;;;4.28;;
60416;SDS011;46263;44.726;10.396;2024-02-26T14:04:02;7.80;;;3.83;;
60416;SDS011;46263;44.726;10.396;2024-02-26T14:15:18;5.13;;;2.90;;
60416;SDS011;46263;44.726;10.396;2024-02-26T14:17:44;4.00;;;2.60;;
60416;SDS011;46263;44.726;10.396;2024-02-26T14:20:11;3.05;;;2.60;;
60416;SDS011;46263;44.726;10.396;2024-02-26T14:22:36;2.10;;;2.00;;
60416;SDS011;46263;44.726;10.396;2024-02-26T14:25:02;3.78;;;2.90;;
60416;SDS011;46263;44.726;10.396;2024-02-26T14:27:28;2.72;;;2.45;;
60416;SDS011;46263;44.726;10.396;2024-02-26T14:29:53;2.38;;;2.17;;
60416;SDS011;46263;44.726;10.396;2024-02-26T14:32:20;2.95;;;2.53;;
60416;SDS011;46263;44.726;10.396;2024-02-26T14:34:45;3.42;;;2.15;;
60416;SDS011;46263;44.726;10.396;2024-02-26T14:37:11;3.30;;;1.90;;
60416;SDS011;46263;44.726;10.396;2024-02-26T14:39:37;2.67;;;2.03;;
60416;SDS011;46263;44.726;10.396;2024-02-26T14:42:03;3.33;;;1.98;;
60416;SDS011;46263;44.726;10.396;2024-02-26T14:44:29;2.67;;;2.10;;
60416;SDS011;46263;44.726;10.396;2024-02-26T14:46:54;1.98;;;1.83;;
60416;SDS011;46263;44.726;10.396;2024-02-26T14:49:20;5.43;;;1.63;;
60416;SDS011;46263;44.726;10.396;2024-02-26T14:51:45;3.50;;;2.17;;
60416;SDS011;46263;44.726;10.396;2024-02-26T14:54:11;1.77;;;1.38;;